sensor_id;sensor_type;location;lat;lon;timestamp;P1;durP1;ratioP1;P2;durP2;ratioP2
21833;SDS011;11079;51.092;3.458;2023-08-07T00:02:13;8.10;;;2.05;;
21833;SDS011;11079;51.092;3.458;2023-08-07T00:04:39;11.40;;;3.42;;
21833;SDS011;11079;51.092;3.458;2023-08-07T00:07:07;6.25;;;1.60;;
21833;SDS011;11079;51.092;3.458;2023-08-07T00:09:34;2.42;;;1.67;;
21833;SDS011;11079;51.092;3.458;2023-08-07T00:12:04;4.63;;;1.60;;
21833;SDS011;11079;51.092;3.458;2023-08-07T00:14:30;6.50;;;1.63;;
21833;SDS011;11079;51.092;3.458;2023-08-07T00:17:05;5.28;;;1.85;;
21833;SDS011;11079;51.092;3.458;2023-08-07T00:19:35;6.68;;;2.42;;
21833;SDS011;11079;51.092;3.458;2023-08-07T00:22:01;4.50;;;1.20;;
21833;SDS011;11079;51.092;3.458;2023-08-07T00:24:28;6.32;;;1.98;;
21833;SDS011;11079;51.092;3.458;2023-08-07T00:26:55;5.07;;;1.90;;
21833;SDS011;11079;51.092;3.458;2023-08-07T00:29:21;4.28;;;1.48;;
21833;SDS011;11079;51.092;3.458;2023-08-07T00:31:47;5.85;;;1.90;;
21833;SDS011;11079;51.092;3.458;2023-08-07T00:34:13;5.68;;;1.70;;
21833;SDS011;11079;51.092;3.458;2023-08-07T00:36:40;2.60;;;1.38;;
21833;SDS011;11079;51.092;3.458;2023-08-07T00:39:06;3.58;;;1.25;;
21833;SDS011;11079;51.092;3.458;2023-08-07T00:41:32;5.47;;;1.25;;
21833;SDS011;11079;51.092;3.458;2023-08-07T00:43:58;4.53;;;2.20;;
21833;SDS011;11079;51.092;3.458;2023-08-07T00:46:25;3.78;;;1.30;;
21833;SDS011;11079;51.092;3.458;2023-08-07T00:48:53;4.28;;;1.35;;
21833;SDS011;11079;51.092;3.458;2023-08-07T00:51:20;3.40;;;1.52;;
21833;SDS011;11079;51.092;3.458;2023-08-07T00:53:47;5.72;;;1.65;;
21833;SDS011;11079;51.092;3.458;2023-08-07T00:56:14;3.88;;;1.55;;
21833;SDS011;11079;51.092;3.458;2023-08-07T00:58:41;5.53;;;1.52;;
21833;SDS011;11079;51.092;3.458;2023-08-07T01:01:09;6.03;;;2.45;;
21833;SDS011;11079;51.092;3.458;2023-08-07T01:03:38;5.75;;;1.52;;
21833;SDS011;11079;51.092;3.458;2023-08-07T01:06:07;5.10;;;1.50;;
21833;SDS011;11079;51.092;3.458;2023-08-07T01:08:35;3.60;;;1.52;;
21833;SDS011;11079;51.092;3.458;2023-08-07T01:16:26;7.15;;;2.40;;
21833;SDS011;11079;51.092;3.458;2023-08-07T01:18:57;5.10;;;1.90;;
21833;SDS011;11079;51.092;3.458;2023-08-07T01:21:25;5.10;;;1.55;;
21833;SDS011;11079;51.092;3.458;2023-08-07T01:23:55;5.30;;;1.80;;
21833;SDS011;11079;51.092;3.458;2023-08-07T01:26:21;3.90;;;1.73;;
21833;SDS011;11079;51.092;3.458;2023-08-07T01:29:12;5.90;;;1.70;;
21833;SDS011;11079;51.092;3.458;2023-08-07T01:31:38;7.30;;;1.60;;
21833;SDS011;11079;51.092;3.458;2023-08-07T01:34:07;2.88;;;1.52;;
21833;SDS011;11079;51.092;3.458;2023-08-07T01:36:35;3.17;;;1.52;;
21833;SDS011;11079;51.092;3.458;2023-08-07T01:39:04;6.88;;;1.92;;
21833;SDS011;11079;51.092;3.458;2023-08-07T01:41:32;4.75;;;1.50;;
21833;SDS011;11079;51.092;3.458;2023-08-07T01:44:01;6.85;;;1.80;;
21833;SDS011;11079;51.092;3.458;2023-08-07T01:46:33;10.10;;;2.22;;
21833;SDS011;11079;51.092;3.458;2023-08-07T01:48:59;5.20;;;1.92;;
21833;SDS011;11079;51.092;3.458;2023-08-07T01:51:26;6.40;;;1.80;;
21833;SDS011;11079;51.092;3.458;2023-08-07T01:53:54;10.30;;;1.80;;
21833;SDS011;11079;51.092;3.458;2023-08-07T01:56:26;3.90;;;1.73;;
21833;SDS011;11079;51.092;3.458;2023-08-07T01:58:54;5.30;;;1.80;;
21833;SDS011;11079;51.092;3.458;2023-08-07T02:01:26;5.13;;;2.00;;
21833;SDS011;11079;51.092;3.458;2023-08-07T02:03:56;4.22;;;1.83;;
21833;SDS011;11079;51.092;3.458;2023-08-07T02:06:42;5.28;;;2.08;;
21833;SDS011;11079;51.092;3.458;2023-08-07T02:09:11;5.47;;;2.22;;
21833;SDS011;11079;51.092;3.458;2023-08-07T02:11:46;6.53;;;2.05;;
21833;SDS011;11079;51.092;3.458;2023-08-07T02:14:12;4.85;;;1.83;;
21833;SDS011;11079;51.092;3.458;2023-08-07T02:16:40;6.55;;;2.60;;
21833;SDS011;11079;51.092;3.458;2023-08-07T02:19:07;8.02;;;2.30;;
21833;SDS011;11079;51.092;3.458;2023-08-07T02:21:35;4.82;;;1.80;;
21833;SDS011;11079;51.092;3.458;2023-08-07T02:24:02;8.18;;;2.03;;
21833;SDS011;11079;51.092;3.458;2023-08-07T02:26:29;4.95;;;1.55;;
21833;SDS011;11079;51.092;3.458;2023-08-07T02:28:55;5.22;;;2.00;;
21833;SDS011;11079;51.092;3.458;2023-08-07T02:31:26;6.45;;;2.38;;
21833;SDS011;11079;51.092;3.458;2023-08-07T02:33:56;3.47;;;2.10;;
21833;SDS011;11079;51.092;3.458;2023-08-07T02:36:22;7.93;;;2.15;;
21833;SDS011;11079;51.092;3.458;2023-08-07T02:38:52;7.90;;;2.30;;
21833;SDS011;11079;51.092;3.458;2023-08-07T02:41:21;7.35;;;2.17;;
21833;SDS011;11079;51.092;3.458;2023-08-07T02:43:47;7.03;;;2.55;;
21833;SDS011;11079;51.092;3.458;2023-08-07T02:46:13;11.10;;;1.90;;
21833;SDS011;11079;51.092;3.458;2023-08-07T02:48:39;5.63;;;2.33;;
21833;SDS011;11079;51.092;3.458;2023-08-07T02:51:10;3.92;;;1.90;;
21833;SDS011;11079;51.092;3.458;2023-08-07T02:53:36;6.80;;;2.10;;
21833;SDS011;11079;51.092;3.458;2023-08-07T02:56:02;5.85;;;1.92;;
21833;SDS011;11079;51.092;3.458;2023-08-07T02:58:30;7.43;;;2.30;;
21833;SDS011;11079;51.092;3.458;2023-08-07T03:01:03;7.80;;;1.92;;
21833;SDS011;11079;51.092;3.458;2023-08-07T03:03:31;6.68;;;2.75;;
21833;SDS011;11079;51.092;3.458;2023-08-07T03:05:58;4.70;;;1.90;;
21833;SDS011;11079;51.092;3.458;2023-08-07T03:08:26;5.75;;;1.90;;
21833;SDS011;11079;51.092;3.458;2023-08-07T03:10:52;6.72;;;2.42;;
21833;SDS011;11079;51.092;3.458;2023-08-07T03:13:23;5.18;;;1.83;;
21833;SDS011;11079;51.092;3.458;2023-08-07T03:15:50;7.07;;;2.42;;
21833;SDS011;11079;51.092;3.458;2023-08-07T03:18:23;9.90;;;2.33;;
21833;SDS011;11079;51.092;3.458;2023-08-07T03:20:52;8.10;;;2.13;;
21833;SDS011;11079;51.092;3.458;2023-08-07T03:23:17;6.10;;;2.42;;
21833;SDS011;11079;51.092;3.458;2023-08-07T03:25:43;6.30;;;2.60;;
21833;SDS011;11079;51.092;3.458;2023-08-07T03:28:14;5.28;;;3.20;;
21833;SDS011;11079;51.092;3.458;2023-08-07T03:30:39;4.00;;;2.08;;
21833;SDS011;11079;51.092;3.458;2023-08-07T03:33:07;3.85;;;1.90;;
21833;SDS011;11079;51.092;3.458;2023-08-07T03:35:33;4.82;;;2.08;;
21833;SDS011;11079;51.092;3.458;2023-08-07T03:37:58;7.82;;;2.30;;
21833;SDS011;11079;51.092;3.458;2023-08-07T03:40:27;5.50;;;2.05;;
21833;SDS011;11079;51.092;3.458;2023-08-07T03:43:07;5.53;;;2.15;;
21833;SDS011;11079;51.092;3.458;2023-08-07T03:45:32;5.90;;;2.30;;
21833;SDS011;11079;51.092;3.458;2023-08-07T03:48:00;7.60;;;2.20;;
21833;SDS011;11079;51.092;3.458;2023-08-07T03:50:26;6.93;;;2.08;;
21833;SDS011;11079;51.092;3.458;2023-08-07T03:52:52;7.47;;;2.53;;
21833;SDS011;11079;51.092;3.458;2023-08-07T03:55:18;5.93;;;2.47;;
21833;SDS011;11079;51.092;3.458;2023-08-07T03:57:45;6.90;;;2.75;;
21833;SDS011;11079;51.092;3.458;2023-08-07T04:00:11;5.68;;;2.47;;
21833;SDS011;11079;51.092;3.458;2023-08-07T04:02:38;5.65;;;2.65;;
21833;SDS011;11079;51.092;3.458;2023-08-07T04:05:05;5.88;;;2.35;;
21833;SDS011;11079;51.092;3.458;2023-08-07T04:07:32;5.47;;;2.53;;
21833;SDS011;11079;51.092;3.458;2023-08-07T04:09:59;8.05;;;2.30;;
21833;SDS011;11079;51.092;3.458;2023-08-07T04:12:26;3.63;;;2.58;;
21833;SDS011;11079;51.092;3.458;2023-08-07T04:15:00;5.35;;;3.20;;
21833;SDS011;11079;51.092;3.458;2023-08-07T04:17:39;4.57;;;2.50;;
21833;SDS011;11079;51.092;3.458;2023-08-07T04:20:11;5.50;;;3.00;;
21833;SDS011;11079;51.092;3.458;2023-08-07T04:22:39;6.47;;;3.30;;
21833;SDS011;11079;51.092;3.458;2023-08-07T04:25:15;8.32;;;2.60;;
21833;SDS011;11079;51.092;3.458;2023-08-07T04:27:41;7.55;;;3.28;;
21833;SDS011;11079;51.092;3.458;2023-08-07T04:30:07;10.85;;;3.25;;
21833;SDS011;11079;51.092;3.458;2023-08-07T04:32:49;6.78;;;3.00;;
21833;SDS011;11079;51.092;3.458;2023-08-07T04:35:16;7.50;;;2.72;;
21833;SDS011;11079;51.092;3.458;2023-08-07T04:37:43;7.00;;;3.67;;
21833;SDS011;11079;51.092;3.458;2023-08-07T04:40:09;6.07;;;3.05;;
21833;SDS011;11079;51.092;3.458;2023-08-07T04:42:35;6.35;;;3.53;;
21833;SDS011;11079;51.092;3.458;2023-08-07T04:45:03;8.98;;;2.88;;
21833;SDS011;11079;51.092;3.458;2023-08-07T04:47:29;12.40;;;3.42;;
21833;SDS011;11079;51.092;3.458;2023-08-07T04:49:56;8.15;;;3.42;;
21833;SDS011;11079;51.092;3.458;2023-08-07T04:52:21;7.07;;;3.10;;
21833;SDS011;11079;51.092;3.458;2023-08-07T04:54:48;7.93;;;3.67;;
21833;SDS011;11079;51.092;3.458;2023-08-07T04:57:14;10.32;;;3.92;;
21833;SDS011;11079;51.092;3.458;2023-08-07T04:59:46;7.50;;;3.92;;
21833;SDS011;11079;51.092;3.458;2023-08-07T05:02:13;11.48;;;3.90;;
21833;SDS011;11079;51.092;3.458;2023-08-07T05:04:42;8.30;;;3.55;;
21833;SDS011;11079;51.092;3.458;2023-08-07T05:07:10;12.05;;;4.57;;
21833;SDS011;11079;51.092;3.458;2023-08-07T05:09:38;6.55;;;3.50;;
21833;SDS011;11079;51.092;3.458;2023-08-07T05:12:04;8.75;;;3.63;;
21833;SDS011;11079;51.092;3.458;2023-08-07T05:14:32;8.50;;;4.10;;
21833;SDS011;11079;51.092;3.458;2023-08-07T05:16:58;8.52;;;3.55;;
21833;SDS011;11079;51.092;3.458;2023-08-07T05:19:25;9.60;;;3.67;;
21833;SDS011;11079;51.092;3.458;2023-08-07T05:21:52;9.73;;;4.00;;
21833;SDS011;11079;51.092;3.458;2023-08-07T05:24:17;9.40;;;3.58;;
21833;SDS011;11079;51.092;3.458;2023-08-07T05:26:43;6.00;;;3.17;;
21833;SDS011;11079;51.092;3.458;2023-08-07T05:29:09;7.22;;;3.55;;
21833;SDS011;11079;51.092;3.458;2023-08-07T05:31:35;7.40;;;3.78;;
21833;SDS011;11079;51.092;3.458;2023-08-07T05:34:02;6.03;;;3.35;;
21833;SDS011;11079;51.092;3.458;2023-08-07T05:36:32;10.75;;;3.50;;
21833;SDS011;11079;51.092;3.458;2023-08-07T05:38:59;7.82;;;3.03;;
21833;SDS011;11079;51.092;3.458;2023-08-07T05:41:25;8.73;;;3.80;;
21833;SDS011;11079;51.092;3.458;2023-08-07T05:43:50;6.82;;;2.80;;
21833;SDS011;11079;51.092;3.458;2023-08-07T05:46:16;6.95;;;2.92;;
21833;SDS011;11079;51.092;3.458;2023-08-07T05:48:42;8.23;;;3.55;;
21833;SDS011;11079;51.092;3.458;2023-08-07T05:51:09;4.57;;;2.90;;
21833;SDS011;11079;51.092;3.458;2023-08-07T05:53:39;7.10;;;3.17;;
21833;SDS011;11079;51.092;3.458;2023-08-07T05:56:07;8.60;;;3.35;;
21833;SDS011;11079;51.092;3.458;2023-08-07T05:58:35;9.00;;;2.95;;
21833;SDS011;11079;51.092;3.458;2023-08-07T06:01:01;6.18;;;2.70;;
21833;SDS011;11079;51.092;3.458;2023-08-07T06:03:27;4.82;;;2.72;;
21833;SDS011;11079;51.092;3.458;2023-08-07T06:05:53;7.15;;;2.92;;
21833;SDS011;11079;51.092;3.458;2023-08-07T06:08:21;8.82;;;3.10;;
21833;SDS011;11079;51.092;3.458;2023-08-07T06:10:48;5.32;;;2.78;;
21833;SDS011;11079;51.092;3.458;2023-08-07T06:13:14;7.03;;;2.97;;
21833;SDS011;11079;51.092;3.458;2023-08-07T06:15:40;5.50;;;2.55;;
21833;SDS011;11079;51.092;3.458;2023-08-07T06:18:07;6.22;;;2.90;;
21833;SDS011;11079;51.092;3.458;2023-08-07T06:20:33;8.80;;;3.22;;
21833;SDS011;11079;51.092;3.458;2023-08-07T06:23:03;5.03;;;2.80;;
21833;SDS011;11079;51.092;3.458;2023-08-07T06:25:35;5.18;;;2.67;;
21833;SDS011;11079;51.092;3.458;2023-08-07T06:28:02;6.65;;;2.65;;
21833;SDS011;11079;51.092;3.458;2023-08-07T06:30:33;4.38;;;2.28;;
21833;SDS011;11079;51.092;3.458;2023-08-07T06:32:59;5.70;;;2.60;;
21833;SDS011;11079;51.092;3.458;2023-08-07T06:35:28;5.85;;;2.80;;
21833;SDS011;11079;51.092;3.458;2023-08-07T06:37:54;9.93;;;2.35;;
21833;SDS011;11079;51.092;3.458;2023-08-07T06:40:21;6.40;;;1.92;;
21833;SDS011;11079;51.092;3.458;2023-08-07T06:42:48;4.30;;;1.85;;
21833;SDS011;11079;51.092;3.458;2023-08-07T06:45:15;6.68;;;2.70;;
21833;SDS011;11079;51.092;3.458;2023-08-07T06:47:41;6.45;;;2.42;;
21833;SDS011;11079;51.092;3.458;2023-08-07T06:50:08;4.68;;;2.33;;
21833;SDS011;11079;51.092;3.458;2023-08-07T06:52:34;6.82;;;2.53;;
21833;SDS011;11079;51.092;3.458;2023-08-07T06:55:07;7.38;;;2.20;;
21833;SDS011;11079;51.092;3.458;2023-08-07T06:57:49;5.85;;;2.33;;
21833;SDS011;11079;51.092;3.458;2023-08-07T07:00:16;6.97;;;2.63;;
21833;SDS011;11079;51.092;3.458;2023-08-07T07:02:43;3.83;;;2.00;;
21833;SDS011;11079;51.092;3.458;2023-08-07T07:05:08;7.00;;;2.42;;
21833;SDS011;11079;51.092;3.458;2023-08-07T07:07:36;3.53;;;2.15;;
21833;SDS011;11079;51.092;3.458;2023-08-07T07:10:02;3.20;;;1.70;;
21833;SDS011;11079;51.092;3.458;2023-08-07T07:12:29;4.47;;;2.00;;
21833;SDS011;11079;51.092;3.458;2023-08-07T07:15:08;5.80;;;2.45;;
21833;SDS011;11079;51.092;3.458;2023-08-07T07:17:35;5.60;;;1.98;;
21833;SDS011;11079;51.092;3.458;2023-08-07T07:20:02;5.10;;;1.90;;
21833;SDS011;11079;51.092;3.458;2023-08-07T07:22:44;6.10;;;2.30;;
21833;SDS011;11079;51.092;3.458;2023-08-07T07:25:12;4.53;;;1.83;;
21833;SDS011;11079;51.092;3.458;2023-08-07T07:27:38;7.13;;;1.98;;
21833;SDS011;11079;51.092;3.458;2023-08-07T07:30:10;4.95;;;2.20;;
21833;SDS011;11079;51.092;3.458;2023-08-07T07:33:01;7.10;;;2.22;;
21833;SDS011;11079;51.092;3.458;2023-08-07T07:35:30;6.35;;;2.10;;
21833;SDS011;11079;51.092;3.458;2023-08-07T07:38:00;3.45;;;1.75;;
21833;SDS011;11079;51.092;3.458;2023-08-07T07:40:28;2.72;;;1.20;;
21833;SDS011;11079;51.092;3.458;2023-08-07T07:42:55;3.92;;;1.30;;
21833;SDS011;11079;51.092;3.458;2023-08-07T07:45:20;7.38;;;1.50;;
21833;SDS011;11079;51.092;3.458;2023-08-07T07:47:46;1.90;;;1.00;;
21833;SDS011;11079;51.092;3.458;2023-08-07T07:50:11;3.03;;;1.35;;
21833;SDS011;11079;51.092;3.458;2023-08-07T07:52:41;3.83;;;1.30;;
21833;SDS011;11079;51.092;3.458;2023-08-07T07:55:12;2.03;;;1.30;;
21833;SDS011;11079;51.092;3.458;2023-08-07T07:57:42;4.18;;;1.50;;
21833;SDS011;11079;51.092;3.458;2023-08-07T08:00:07;1.90;;;1.00;;
21833;SDS011;11079;51.092;3.458;2023-08-07T08:02:38;4.00;;;1.17;;
21833;SDS011;11079;51.092;3.458;2023-08-07T08:05:06;3.00;;;1.35;;
21833;SDS011;11079;51.092;3.458;2023-08-07T08:07:39;5.63;;;1.15;;
21833;SDS011;11079;51.092;3.458;2023-08-07T08:10:16;3.45;;;1.60;;
21833;SDS011;11079;51.092;3.458;2023-08-07T08:12:43;3.65;;;1.30;;
21833;SDS011;11079;51.092;3.458;2023-08-07T08:15:29;4.07;;;1.02;;
21833;SDS011;11079;51.092;3.458;2023-08-07T08:17:56;2.85;;;1.05;;
21833;SDS011;11079;51.092;3.458;2023-08-07T08:20:21;3.70;;;1.35;;
21833;SDS011;11079;51.092;3.458;2023-08-07T08:22:48;2.08;;;1.00;;
21833;SDS011;11079;51.092;3.458;2023-08-07T08:25:16;1.85;;;0.93;;
21833;SDS011;11079;51.092;3.458;2023-08-07T08:27:43;3.05;;;1.30;;
21833;SDS011;11079;51.092;3.458;2023-08-07T08:30:12;2.95;;;1.25;;
21833;SDS011;11079;51.092;3.458;2023-08-07T08:32:39;2.78;;;1.10;;
21833;SDS011;11079;51.092;3.458;2023-08-07T08:35:05;3.45;;;1.40;;
21833;SDS011;11079;51.092;3.458;2023-08-07T08:37:31;1.92;;;1.00;;
21833;SDS011;11079;51.092;3.458;2023-08-07T08:39:57;4.57;;;1.40;;
21833;SDS011;11079;51.092;3.458;2023-08-07T08:42:27;3.53;;;1.50;;
21833;SDS011;11079;51.092;3.458;2023-08-07T08:45:06;4.35;;;1.08;;
21833;SDS011;11079;51.092;3.458;2023-08-07T08:47:36;3.30;;;1.38;;
21833;SDS011;11079;51.092;3.458;2023-08-07T08:50:19;3.20;;;1.23;;
21833;SDS011;11079;51.092;3.458;2023-08-07T08:52:46;3.15;;;1.30;;
21833;SDS011;11079;51.092;3.458;2023-08-07T08:55:14;1.30;;;1.15;;
21833;SDS011;11079;51.092;3.458;2023-08-07T08:57:44;2.50;;;1.20;;
21833;SDS011;11079;51.092;3.458;2023-08-07T09:00:16;2.97;;;1.25;;
21833;SDS011;11079;51.092;3.458;2023-08-07T09:02:50;3.58;;;1.20;;
21833;SDS011;11079;51.092;3.458;2023-08-07T09:05:33;2.03;;;1.10;;
21833;SDS011;11079;51.092;3.458;2023-08-07T09:08:01;4.22;;;1.75;;
21833;SDS011;11079;51.092;3.458;2023-08-07T09:10:28;3.55;;;1.33;;
21833;SDS011;11079;51.092;3.458;2023-08-07T09:13:04;3.15;;;1.27;;
21833;SDS011;11079;51.092;3.458;2023-08-07T09:15:36;1.88;;;1.02;;
21833;SDS011;11079;51.092;3.458;2023-08-07T09:18:13;2.92;;;1.40;;
21833;SDS011;11079;51.092;3.458;2023-08-07T09:20:40;2.97;;;1.17;;
21833;SDS011;11079;51.092;3.458;2023-08-07T09:23:07;2.28;;;1.00;;
21833;SDS011;11079;51.092;3.458;2023-08-07T09:25:43;2.25;;;1.20;;
21833;SDS011;11079;51.092;3.458;2023-08-07T09:28:09;3.03;;;1.20;;
21833;SDS011;11079;51.092;3.458;2023-08-07T09:30:36;2.03;;;1.00;;
21833;SDS011;11079;51.092;3.458;2023-08-07T09:33:03;3.53;;;1.15;;
21833;SDS011;11079;51.092;3.458;2023-08-07T09:35:30;3.28;;;1.40;;
21833;SDS011;11079;51.092;3.458;2023-08-07T09:37:58;2.00;;;1.15;;
21833;SDS011;11079;51.092;3.458;2023-08-07T09:40:24;2.97;;;1.00;;
21833;SDS011;11079;51.092;3.458;2023-08-07T09:42:50;2.58;;;1.17;;
21833;SDS011;11079;51.092;3.458;2023-08-07T09:45:21;3.92;;;1.27;;
21833;SDS011;11079;51.092;3.458;2023-08-07T09:47:56;4.07;;;1.10;;
21833;SDS011;11079;51.092;3.458;2023-08-07T09:50:22;1.80;;;1.10;;
21833;SDS011;11079;51.092;3.458;2023-08-07T09:52:49;2.55;;;1.20;;
21833;SDS011;11079;51.092;3.458;2023-08-07T09:55:16;1.63;;;1.10;;
21833;SDS011;11079;51.092;3.458;2023-08-07T09:57:42;2.90;;;1.10;;
21833;SDS011;11079;51.092;3.458;2023-08-07T10:00:10;2.00;;;1.20;;
21833;SDS011;11079;51.092;3.458;2023-08-07T10:02:43;2.92;;;1.38;;
21833;SDS011;11079;51.092;3.458;2023-08-07T10:05:14;1.90;;;1.45;;
21833;SDS011;11079;51.092;3.458;2023-08-07T10:07:41;2.28;;;1.48;;
21833;SDS011;11079;51.092;3.458;2023-08-07T10:10:07;2.80;;;1.27;;
21833;SDS011;11079;51.092;3.458;2023-08-07T10:12:34;3.17;;;1.40;;
21833;SDS011;11079;51.092;3.458;2023-08-07T10:15:04;2.53;;;1.00;;
21833;SDS011;11079;51.092;3.458;2023-08-07T10:17:32;2.50;;;1.13;;
21833;SDS011;11079;51.092;3.458;2023-08-07T10:19:58;4.00;;;1.30;;
21833;SDS011;11079;51.092;3.458;2023-08-07T10:22:24;3.10;;;1.55;;
21833;SDS011;11079;51.092;3.458;2023-08-07T10:24:57;4.25;;;1.73;;
21833;SDS011;11079;51.092;3.458;2023-08-07T10:27:25;2.35;;;1.25;;
21833;SDS011;11079;51.092;3.458;2023-08-07T10:29:53;2.10;;;0.90;;
21833;SDS011;11079;51.092;3.458;2023-08-07T10:32:20;2.55;;;1.20;;
21833;SDS011;11079;51.092;3.458;2023-08-07T10:34:51;2.40;;;1.15;;
21833;SDS011;11079;51.092;3.458;2023-08-07T10:37:38;2.10;;;1.05;;
21833;SDS011;11079;51.092;3.458;2023-08-07T10:40:09;2.95;;;1.20;;
21833;SDS011;11079;51.092;3.458;2023-08-07T10:45:24;1.27;;;0.90;;
21833;SDS011;11079;51.092;3.458;2023-08-07T10:50:51;1.65;;;0.98;;
21833;SDS011;11079;51.092;3.458;2023-08-07T10:56:03;2.05;;;0.90;;
21833;SDS011;11079;51.092;3.458;2023-08-07T10:58:33;1.60;;;0.80;;
21833;SDS011;11079;51.092;3.458;2023-08-07T11:03:57;1.83;;;0.98;;
21833;SDS011;11079;51.092;3.458;2023-08-07T11:06:27;1.50;;;1.10;;
21833;SDS011;11079;51.092;3.458;2023-08-07T11:09:01;1.75;;;0.80;;
21833;SDS011;11079;51.092;3.458;2023-08-07T11:11:29;2.10;;;1.00;;
21833;SDS011;11079;51.092;3.458;2023-08-07T11:14:04;1.50;;;0.80;;
21833;SDS011;11079;51.092;3.458;2023-08-07T11:16:33;1.35;;;0.68;;
21833;SDS011;11079;51.092;3.458;2023-08-07T11:18:59;0.63;;;0.60;;
21833;SDS011;11079;51.092;3.458;2023-08-07T11:21:26;1.75;;;0.57;;
21833;SDS011;11079;51.092;3.458;2023-08-07T11:23:51;1.98;;;0.80;;
21833;SDS011;11079;51.092;3.458;2023-08-07T11:26:17;2.80;;;0.70;;
21833;SDS011;11079;51.092;3.458;2023-08-07T11:28:46;1.40;;;0.70;;
21833;SDS011;11079;51.092;3.458;2023-08-07T11:31:12;0.85;;;0.50;;
21833;SDS011;11079;51.092;3.458;2023-08-07T11:33:40;2.20;;;0.70;;
21833;SDS011;11079;51.092;3.458;2023-08-07T11:36:13;1.02;;;0.70;;
21833;SDS011;11079;51.092;3.458;2023-08-07T11:38:40;2.83;;;0.77;;
21833;SDS011;11079;51.092;3.458;2023-08-07T11:41:10;0.80;;;0.50;;
21833;SDS011;11079;51.092;3.458;2023-08-07T11:43:37;2.47;;;0.80;;
21833;SDS011;11079;51.092;3.458;2023-08-07T11:46:05;0.93;;;0.60;;
21833;SDS011;11079;51.092;3.458;2023-08-07T11:48:34;0.60;;;0.50;;
21833;SDS011;11079;51.092;3.458;2023-08-07T11:51:03;1.88;;;0.60;;
21833;SDS011;11079;51.092;3.458;2023-08-07T11:53:30;1.73;;;0.52;;
21833;SDS011;11079;51.092;3.458;2023-08-07T11:55:58;2.95;;;1.10;;
21833;SDS011;11079;51.092;3.458;2023-08-07T11:58:26;1.05;;;0.55;;
21833;SDS011;11079;51.092;3.458;2023-08-07T12:00:53;2.65;;;0.77;;
21833;SDS011;11079;51.092;3.458;2023-08-07T12:03:23;2.25;;;0.65;;
21833;SDS011;11079;51.092;3.458;2023-08-07T12:05:54;2.63;;;0.60;;
21833;SDS011;11079;51.092;3.458;2023-08-07T12:08:24;3.55;;;0.80;;
21833;SDS011;11079;51.092;3.458;2023-08-07T12:10:56;1.90;;;0.90;;
21833;SDS011;11079;51.092;3.458;2023-08-07T12:13:25;1.58;;;0.85;;
21833;SDS011;11079;51.092;3.458;2023-08-07T12:15:54;1.85;;;0.93;;
21833;SDS011;11079;51.092;3.458;2023-08-07T12:18:20;3.63;;;0.82;;
21833;SDS011;11079;51.092;3.458;2023-08-07T12:20:48;1.17;;;0.50;;
21833;SDS011;11079;51.092;3.458;2023-08-07T12:23:21;1.10;;;0.60;;
21833;SDS011;11079;51.092;3.458;2023-08-07T12:25:47;2.60;;;0.65;;
21833;SDS011;11079;51.092;3.458;2023-08-07T12:28:14;2.47;;;0.90;;
21833;SDS011;11079;51.092;3.458;2023-08-07T12:30:42;1.45;;;0.70;;
21833;SDS011;11079;51.092;3.458;2023-08-07T12:33:11;2.72;;;1.10;;
21833;SDS011;11079;51.092;3.458;2023-08-07T12:35:36;2.58;;;0.55;;
21833;SDS011;11079;51.092;3.458;2023-08-07T12:38:02;2.78;;;0.80;;
21833;SDS011;11079;51.092;3.458;2023-08-07T12:40:28;1.48;;;0.70;;
21833;SDS011;11079;51.092;3.458;2023-08-07T12:43:00;1.75;;;0.82;;
21833;SDS011;11079;51.092;3.458;2023-08-07T12:45:26;0.85;;;0.70;;
21833;SDS011;11079;51.092;3.458;2023-08-07T12:47:51;2.42;;;0.75;;
21833;SDS011;11079;51.092;3.458;2023-08-07T12:50:17;4.18;;;0.68;;
21833;SDS011;11079;51.092;3.458;2023-08-07T12:52:43;1.63;;;0.65;;
21833;SDS011;11079;51.092;3.458;2023-08-07T12:55:09;2.55;;;1.02;;
21833;SDS011;11079;51.092;3.458;2023-08-07T12:57:36;3.00;;;0.90;;
21833;SDS011;11079;51.092;3.458;2023-08-07T13:00:03;2.55;;;0.77;;
21833;SDS011;11079;51.092;3.458;2023-08-07T13:02:29;3.65;;;1.08;;
21833;SDS011;11079;51.092;3.458;2023-08-07T13:04:55;1.20;;;0.70;;
21833;SDS011;11079;51.092;3.458;2023-08-07T13:07:22;2.42;;;0.98;;
21833;SDS011;11079;51.092;3.458;2023-08-07T13:09:48;1.13;;;0.95;;
21833;SDS011;11079;51.092;3.458;2023-08-07T13:12:13;3.38;;;1.25;;
21833;SDS011;11079;51.092;3.458;2023-08-07T13:14:40;2.33;;;0.80;;
21833;SDS011;11079;51.092;3.458;2023-08-07T13:17:05;2.75;;;0.77;;
21833;SDS011;11079;51.092;3.458;2023-08-07T13:19:31;2.92;;;1.10;;
21833;SDS011;11079;51.092;3.458;2023-08-07T13:21:57;2.03;;;0.85;;
21833;SDS011;11079;51.092;3.458;2023-08-07T13:24:22;2.70;;;0.82;;
21833;SDS011;11079;51.092;3.458;2023-08-07T13:26:48;1.55;;;1.00;;
21833;SDS011;11079;51.092;3.458;2023-08-07T13:29:14;1.63;;;0.60;;
21833;SDS011;11079;51.092;3.458;2023-08-07T13:31:40;1.92;;;0.85;;
21833;SDS011;11079;51.092;3.458;2023-08-07T13:34:11;5.45;;;1.95;;
21833;SDS011;11079;51.092;3.458;2023-08-07T13:36:37;3.10;;;1.20;;
21833;SDS011;11079;51.092;3.458;2023-08-07T13:39:04;2.42;;;1.35;;
21833;SDS011;11079;51.092;3.458;2023-08-07T13:41:31;5.68;;;0.90;;
21833;SDS011;11079;51.092;3.458;2023-08-07T13:44:01;2.88;;;0.90;;
21833;SDS011;11079;51.092;3.458;2023-08-07T13:46:26;3.50;;;0.80;;
21833;SDS011;11079;51.092;3.458;2023-08-07T13:48:52;3.33;;;1.00;;
21833;SDS011;11079;51.092;3.458;2023-08-07T13:51:19;2.67;;;1.10;;
21833;SDS011;11079;51.092;3.458;2023-08-07T13:53:44;4.38;;;1.20;;
21833;SDS011;11079;51.092;3.458;2023-08-07T13:56:10;3.65;;;1.00;;
21833;SDS011;11079;51.092;3.458;2023-08-07T13:58:41;1.58;;;0.80;;
21833;SDS011;11079;51.092;3.458;2023-08-07T14:01:07;2.83;;;1.20;;
21833;SDS011;11079;51.092;3.458;2023-08-07T14:03:33;2.28;;;1.10;;
21833;SDS011;11079;51.092;3.458;2023-08-07T14:05:59;1.45;;;0.90;;
21833;SDS011;11079;51.092;3.458;2023-08-07T14:08:25;1.10;;;0.90;;
21833;SDS011;11079;51.092;3.458;2023-08-07T14:10:51;4.30;;;1.13;;
21833;SDS011;11079;51.092;3.458;2023-08-07T14:13:17;1.90;;;0.70;;
21833;SDS011;11079;51.092;3.458;2023-08-07T14:15:43;2.13;;;0.60;;
21833;SDS011;11079;51.092;3.458;2023-08-07T14:18:08;2.95;;;1.15;;
21833;SDS011;11079;51.092;3.458;2023-08-07T14:20:36;3.05;;;0.95;;
21833;SDS011;11079;51.092;3.458;2023-08-07T14:23:03;2.53;;;1.10;;
21833;SDS011;11079;51.092;3.458;2023-08-07T14:25:29;1.42;;;0.88;;
21833;SDS011;11079;51.092;3.458;2023-08-07T14:27:55;2.25;;;1.10;;
21833;SDS011;11079;51.092;3.458;2023-08-07T14:30:20;3.15;;;1.08;;
21833;SDS011;11079;51.092;3.458;2023-08-07T14:32:46;1.23;;;0.93;;
21833;SDS011;11079;51.092;3.458;2023-08-07T14:35:13;2.22;;;0.85;;
21833;SDS011;11079;51.092;3.458;2023-08-07T14:37:39;1.48;;;0.90;;
21833;SDS011;11079;51.092;3.458;2023-08-07T14:40:05;1.55;;;0.90;;
21833;SDS011;11079;51.092;3.458;2023-08-07T14:42:31;1.40;;;1.02;;
21833;SDS011;11079;51.092;3.458;2023-08-07T14:44:58;3.47;;;1.40;;
21833;SDS011;11079;51.092;3.458;2023-08-07T14:47:25;5.88;;;1.30;;
21833;SDS011;11079;51.092;3.458;2023-08-07T14:49:51;5.57;;;2.10;;
21833;SDS011;11079;51.092;3.458;2023-08-07T14:52:17;3.00;;;1.40;;
21833;SDS011;11079;51.092;3.458;2023-08-07T14:54:43;1.52;;;0.90;;
21833;SDS011;11079;51.092;3.458;2023-08-07T14:57:09;2.97;;;1.30;;
21833;SDS011;11079;51.092;3.458;2023-08-07T14:59:35;2.67;;;1.30;;
21833;SDS011;11079;51.092;3.458;2023-08-07T15:02:01;30.38;;;7.78;;
21833;SDS011;11079;51.092;3.458;2023-08-07T15:04:28;2.83;;;1.33;;
21833;SDS011;11079;51.092;3.458;2023-08-07T15:09:55;2.72;;;1.00;;
21833;SDS011;11079;51.092;3.458;2023-08-07T15:12:21;5.88;;;1.40;;
21833;SDS011;11079;51.092;3.458;2023-08-07T15:14:46;3.53;;;1.50;;